createdAt,value
2022-08-28T00:02:43.610Z,100.00
2022-08-28T00:07:47.986Z,100.00
2022-08-28T00:12:52.690Z,100.00
2022-08-28T00:17:55.696Z,100.00
2022-08-28T00:23:00.422Z,100.00
2022-08-28T00:28:08.728Z,100.00
2022-08-28T00:33:23.795Z,100.00
2022-08-28T00:38:28.395Z,100.00
2022-08-28T00:43:40.101Z,100.00
2022-08-28T00:48:42.999Z,100.00
2022-08-28T00:53:45.624Z,100.00
2022-08-28T00:58:51.858Z,100.00
2022-08-28T01:03:54.595Z,100.00
2022-08-28T01:08:59.042Z,100.00
2022-08-28T01:14:05.493Z,100.00
2022-08-28T01:19:18.431Z,100.00
2022-08-28T01:24:22.473Z,100.00
2022-08-28T01:29:25.656Z,100.00
2022-08-28T01:34:28.582Z,100.00
2022-08-28T01:39:31.527Z,100.00
2022-08-28T01:44:34.287Z,100.00
2022-08-28T01:49:37.326Z,100.00
2022-08-28T01:54:40.516Z,100.00
2022-08-28T01:59:43.574Z,100.00
2022-08-28T02:04:48.346Z,100.00
2022-08-28T02:09:51.849Z,100.00
2022-08-28T02:14:55.171Z,100.00
2022-08-28T02:19:59.835Z,100.00
2022-08-28T02:25:05.049Z,100.00
2022-08-28T02:30:11.859Z,100.00
2022-08-28T02:35:17.221Z,100.00
2022-08-28T02:40:23.741Z,100.00
2022-08-28T02:45:26.689Z,100.00
2022-08-28T02:50:31.113Z,100.00
2022-08-28T02:55:34.350Z,100.00
2022-08-28T03:00:37.202Z,100.00
2022-08-28T03:05:39.984Z,100.00
2022-08-28T03:10:42.700Z,100.00
2022-08-28T03:15:46.502Z,100.00
2022-08-28T03:20:56.007Z,100.00
2022-08-28T03:26:01.791Z,100.00
2022-08-28T03:31:06.136Z,100.00
2022-08-28T03:36:14.002Z,100.00
2022-08-28T03:41:19.131Z,100.00
2022-08-28T03:46:24.491Z,100.00
2022-08-28T03:51:30.793Z,100.00
2022-08-28T03:56:33.612Z,100.00
2022-08-28T04:01:38.372Z,100.00
2022-08-28T04:06:41.794Z,100.00
2022-08-28T04:11:44.514Z,100.00
2022-08-28T04:16:47.326Z,100.00
2022-08-28T04:21:50.098Z,100.00
2022-08-28T04:26:54.198Z,100.00
2022-08-28T04:31:58.226Z,100.00
2022-08-28T04:37:01.105Z,100.00
2022-08-28T04:42:04.073Z,100.00
2022-08-28T04:47:06.705Z,100.00
2022-08-28T04:52:09.449Z,100.00
2022-08-28T04:57:12.180Z,100.00
2022-08-28T05:02:14.935Z,100.00
2022-08-28T05:07:17.714Z,100.00
2022-08-28T05:12:21.035Z,100.00
2022-08-28T05:17:23.757Z,100.00
2022-08-28T05:22:31.149Z,100.00
2022-08-28T05:27:33.930Z,100.00
2022-08-28T05:32:36.975Z,100.00
2022-08-28T05:37:39.783Z,100.00
2022-08-28T05:42:45.099Z,100.00
2022-08-28T05:47:47.771Z,99.53
2022-08-28T05:52:50.464Z,96.93
2022-08-28T05:57:53.069Z,93.22
2022-08-28T06:02:55.869Z,91.32
2022-08-28T06:07:59.226Z,91.57
2022-08-28T06:13:02.225Z,91.02
2022-08-28T06:18:05.885Z,89.72
2022-08-28T06:23:10.766Z,89.54
2022-08-28T06:28:19.369Z,88.91
2022-08-28T06:33:23.697Z,87.91
2022-08-28T06:38:27.162Z,86.45
2022-08-28T06:43:29.942Z,85.79
2022-08-28T06:48:32.897Z,85.04
2022-08-28T06:53:36.439Z,84.62
2022-08-28T06:58:41.826Z,83.28
2022-08-28T07:03:45.957Z,82.35
2022-08-28T07:08:49.265Z,81.07
2022-08-28T07:13:52.812Z,80.28
2022-08-28T07:18:57.188Z,78.87
2022-08-28T07:23:59.933Z,78.30
2022-08-28T07:29:10.138Z,77.41
2022-08-28T07:34:17.266Z,76.72
2022-08-28T07:39:20.034Z,75.80
2022-08-28T07:44:41.288Z,74.22
2022-08-28T07:49:44.938Z,73.01
2022-08-28T07:54:48.140Z,72.23
2022-08-28T07:59:52.476Z,71.81
2022-08-28T08:04:55.388Z,70.73
2022-08-28T08:09:58.522Z,69.24
2022-08-28T08:15:01.271Z,67.60
2022-08-28T08:20:05.629Z,67.63
2022-08-28T08:25:08.831Z,66.83
2022-08-28T08:30:12.097Z,65.51
2022-08-28T08:35:14.803Z,63.59
2022-08-28T08:40:19.763Z,62.41
2022-08-28T08:45:26.543Z,60.74
2022-08-28T08:50:34.620Z,60.34
2022-08-28T08:55:45.202Z,59.92
2022-08-28T09:00:57.508Z,58.75
2022-08-28T09:06:06.029Z,57.87
2022-08-28T09:11:45.186Z,56.74
2022-08-28T09:16:53.474Z,55.16
2022-08-28T09:21:56.783Z,53.97
2022-08-28T09:27:01.837Z,53.31
2022-08-28T09:32:25.478Z,51.93
2022-08-28T09:37:32.604Z,51.30
2022-08-28T09:42:53.973Z,50.28
2022-08-28T09:48:02.678Z,49.05
2022-08-28T09:53:14.313Z,48.47
2022-08-28T09:58:17.542Z,46.72
2022-08-28T10:03:38.048Z,45.89
2022-08-28T10:08:49.788Z,46.05
2022-08-28T10:14:24.704Z,45.88
2022-08-28T10:19:59.373Z,45.04
2022-08-28T10:25:08.303Z,44.98
2022-08-28T10:30:17.615Z,44.38
2022-08-28T10:35:38.210Z,43.68
2022-08-28T10:41:08.465Z,43.56
2022-08-28T10:46:23.106Z,42.04
2022-08-28T10:51:44.417Z,42.15
2022-08-28T10:56:56.632Z,41.75
2022-08-28T11:02:01.044Z,39.46
2022-08-28T11:07:38.822Z,37.88
2022-08-28T11:12:43.565Z,37.95
2022-08-28T11:17:47.729Z,37.94
2022-08-28T11:22:53.370Z,37.88
2022-08-28T11:28:22.437Z,37.56
2022-08-28T11:33:36.080Z,35.24
2022-08-28T11:38:41.782Z,36.28
2022-08-28T11:43:46.603Z,34.69
2022-08-28T11:48:53.178Z,35.11
2022-08-28T11:54:04.279Z,35.21
2022-08-28T11:59:13.878Z,36.05
2022-08-28T12:04:22.696Z,35.37
2022-08-28T12:09:37.446Z,33.76
2022-08-28T12:14:40.062Z,31.99
2022-08-28T12:20:04.927Z,32.60
2022-08-28T12:25:22.061Z,32.81
2022-08-28T12:30:31.065Z,32.50
2022-08-28T12:35:34.307Z,30.57
2022-08-28T12:40:37.063Z,31.17
2022-08-28T12:45:45.509Z,30.22
2022-08-28T12:50:56.369Z,30.92
2022-08-28T12:56:02.206Z,30.30
2022-08-28T13:01:16.337Z,30.35
2022-08-28T13:06:25.772Z,31.45
2022-08-28T13:11:36.821Z,31.83
2022-08-28T13:16:47.126Z,31.89
2022-08-28T13:22:02.004Z,31.00
2022-08-28T13:27:19.479Z,30.26
2022-08-28T13:32:23.111Z,29.86
2022-08-28T13:37:59.861Z,30.03
2022-08-28T13:43:07.095Z,28.76
2022-08-28T13:48:11.273Z,29.25
2022-08-28T13:53:16.071Z,29.35
2022-08-28T13:58:19.477Z,29.20
2022-08-28T14:03:39.109Z,29.09
2022-08-28T14:08:43.796Z,30.26
2022-08-28T14:13:55.349Z,30.30
2022-08-28T14:19:04.510Z,30.39
2022-08-28T14:24:08.463Z,29.56
2022-08-28T14:29:13.531Z,28.86
2022-08-28T14:34:20.127Z,29.37
2022-08-28T14:39:25.241Z,30.92
2022-08-28T14:44:28.005Z,32.83
2022-08-28T14:49:30.857Z,34.26
2022-08-28T14:54:33.590Z,34.09
2022-08-28T14:59:36.278Z,34.16
2022-08-28T15:04:39.154Z,34.84
2022-08-28T15:09:43.034Z,35.49
2022-08-28T15:14:54.886Z,37.17
2022-08-28T15:20:01.109Z,39.01
2022-08-28T15:25:05.955Z,39.42
2022-08-28T15:30:09.473Z,37.38
2022-08-28T15:35:12.303Z,36.38
2022-08-28T15:40:33.877Z,36.72
2022-08-28T15:45:41.710Z,36.80
2022-08-28T15:50:45.066Z,36.56
2022-08-28T15:55:47.900Z,36.50
2022-08-28T16:00:50.784Z,38.36
2022-08-28T16:05:53.591Z,43.71
2022-08-28T16:10:56.773Z,48.67
2022-08-28T16:15:59.745Z,53.17
2022-08-28T16:21:04.895Z,57.51
2022-08-28T16:26:11.088Z,62.84
2022-08-28T16:31:19.630Z,66.18
2022-08-28T16:36:26.793Z,68.63
2022-08-28T16:41:30.418Z,70.44
2022-08-28T16:46:35.363Z,72.77
2022-08-28T16:51:39.158Z,75.11
2022-08-28T16:56:42.492Z,76.68
2022-08-28T17:01:45.534Z,79.34
2022-08-28T17:06:55.919Z,82.02
2022-08-28T17:12:00.188Z,84.74
2022-08-28T17:17:03.950Z,85.62
2022-08-28T17:22:27.221Z,85.77
2022-08-28T17:27:32.235Z,87.13
2022-08-28T17:32:35.749Z,89.48
2022-08-28T17:37:40.153Z,89.33
2022-08-28T17:42:45.715Z,89.68
2022-08-28T17:47:48.559Z,91.64
2022-08-28T17:52:51.678Z,92.72
2022-08-28T17:57:55.091Z,93.98
2022-08-28T18:02:58.408Z,94.91
2022-08-28T18:08:01.204Z,94.77
2022-08-28T18:13:05.680Z,95.95
2022-08-28T18:18:08.786Z,95.50
2022-08-28T18:23:11.614Z,96.16
2022-08-28T18:28:22.474Z,96.11
2022-08-28T18:33:25.589Z,96.91
2022-08-28T18:38:28.811Z,97.75
2022-08-28T18:43:31.889Z,98.39
2022-08-28T18:48:36.532Z,98.37
2022-08-28T18:53:43.276Z,98.90
2022-08-28T18:58:46.246Z,99.30
2022-08-28T19:03:50.451Z,100.00
2022-08-28T19:08:53.240Z,99.85
2022-08-28T19:13:56.011Z,99.99
2022-08-28T19:18:58.927Z,100.00
2022-08-28T19:24:05.316Z,100.00
2022-08-28T19:29:09.531Z,100.00
2022-08-28T19:34:13.200Z,100.00
2022-08-28T19:39:16.175Z,100.00
2022-08-28T19:44:19.135Z,100.00
2022-08-28T19:49:21.880Z,100.00
2022-08-28T19:54:24.679Z,100.00
2022-08-28T19:59:27.503Z,100.00
2022-08-28T20:04:31.461Z,100.00
2022-08-28T20:09:34.217Z,100.00
2022-08-28T20:14:41.494Z,100.00
2022-08-28T20:19:46.411Z,100.00
2022-08-28T20:24:49.223Z,100.00
2022-08-28T20:29:51.986Z,100.00
2022-08-28T20:34:54.871Z,100.00
2022-08-28T20:39:58.861Z,100.00
2022-08-28T20:45:02.791Z,100.00
2022-08-28T20:50:06.232Z,100.00
2022-08-28T20:55:10.478Z,100.00
2022-08-28T21:00:14.095Z,100.00
2022-08-28T21:05:17.001Z,100.00
2022-08-28T21:10:20.033Z,100.00
2022-08-28T21:15:22.808Z,100.00
2022-08-28T21:20:26.105Z,100.00
2022-08-28T21:25:30.852Z,100.00
2022-08-28T21:30:34.283Z,100.00
2022-08-28T21:35:37.285Z,100.00
2022-08-28T21:40:41.043Z,100.00
2022-08-28T21:45:43.920Z,100.00
2022-08-28T21:50:46.876Z,100.00
2022-08-28T21:55:54.779Z,100.00
2022-08-28T22:00:58.479Z,100.00
2022-08-28T22:06:01.581Z,100.00
2022-08-28T22:11:04.719Z,100.00
2022-08-28T22:16:08.482Z,100.00
2022-08-28T22:21:32.255Z,100.00
2022-08-28T22:26:35.332Z,100.00
2022-08-28T22:31:45.513Z,100.00
2022-08-28T22:36:48.958Z,100.00
2022-08-28T22:41:51.641Z,100.00
2022-08-28T22:46:54.261Z,100.00
2022-08-28T22:51:57.276Z,100.00
2022-08-28T22:57:00.016Z,100.00
2022-08-28T23:02:03.818Z,100.00
2022-08-28T23:07:06.713Z,100.00
2022-08-28T23:12:09.412Z,100.00
2022-08-28T23:17:11.990Z,100.00
2022-08-28T23:22:15.693Z,100.00
2022-08-28T23:27:35.807Z,100.00
2022-08-28T23:32:39.479Z,100.00
2022-08-28T23:37:48.028Z,100.00
2022-08-28T23:42:53.563Z,100.00
2022-08-28T23:47:56.292Z,100.00
2022-08-28T23:52:59.225Z,100.00
2022-08-28T23:58:04.172Z,100.00
